Hampton Beach, New Hampshire
Current Conditions -  °F | °C
As of 6:58 AM on Monday 24 Nov 2014 (Local Time) from KPSM Reporting Station
Moderate Rain Moderate Rain  
Wind Chill: 52°   Ceiling: 500
Heat Index: 52°   Visibility: 2.5mi
Dew Point: 51°   Wind: 16mph
Humidity: 94%   Direction: 140°SE
Pressure: 29.88"   Gusts: NA
Location:  42.9284°N, 70.8566°W
Report Text: KPSM 241158Z 14014KT 2 1/2SM RA BR OVC005 11/10 A2988 RMK AO2A SLP122 P0009 60014 70014 T01130104 10113 20042 57042
Loading
Personal Weather Stations






























Interactive Weather Map New forecast layout! Learn more

10-Day Weather Forecast

Advertisements
Track Severe Weather on mobile